createdAt,value
2023-02-22T00:00:42.847Z,3.70
2023-02-22T00:03:25.416Z,2.63
2023-02-22T00:05:54.647Z,4.17
2023-02-22T00:08:26.020Z,3.53
2023-02-22T00:10:52.684Z,3.63
2023-02-22T00:13:23.138Z,3.00
2023-02-22T00:15:49.846Z,2.90
2023-02-22T00:18:19.146Z,2.53
2023-02-22T00:20:46.063Z,2.77
2023-02-22T00:23:19.083Z,2.20
2023-02-22T00:25:47.547Z,2.73
2023-02-22T00:28:15.658Z,2.57
2023-02-22T00:30:44.071Z,2.23
2023-02-22T00:33:12.434Z,2.57
2023-02-22T00:35:39.315Z,4.90
2023-02-22T00:38:06.888Z,6.10
2023-02-22T00:40:35.142Z,3.67
2023-02-22T00:43:04.834Z,2.37
2023-02-22T00:45:33.598Z,2.13
2023-02-22T00:48:02.004Z,2.53
2023-02-22T00:50:31.038Z,2.10
2023-02-22T00:52:59.685Z,2.40
2023-02-22T00:55:35.553Z,2.37
2023-02-22T00:58:02.792Z,2.20
2023-02-22T01:00:33.573Z,2.27
2023-02-22T01:03:00.655Z,2.23
2023-02-22T01:05:29.911Z,2.43
2023-02-22T01:07:58.702Z,2.40
2023-02-22T01:10:28.632Z,2.43
2023-02-22T01:12:56.092Z,2.53
2023-02-22T01:15:25.369Z,2.30
2023-02-22T01:17:53.915Z,2.20
2023-02-22T01:20:29.153Z,2.17
2023-02-22T01:22:58.653Z,2.40
2023-02-22T01:25:28.512Z,2.30
2023-02-22T01:27:57.097Z,4.13
2023-02-22T01:30:27.274Z,3.43
2023-02-22T01:32:54.348Z,2.87
2023-02-22T01:35:26.592Z,2.50
2023-02-22T01:37:53.276Z,2.77
2023-02-22T01:40:45.325Z,2.53
2023-02-22T01:43:16.862Z,2.60
2023-02-22T01:45:58.775Z,2.20
2023-02-22T01:48:31.983Z,2.30
2023-02-22T01:51:01.743Z,2.17
2023-02-22T01:53:35.784Z,2.23
2023-02-22T01:56:06.835Z,2.40
2023-02-22T01:58:36.880Z,1.77
2023-02-22T02:01:03.763Z,2.33
2023-02-22T02:03:33.633Z,2.47
2023-02-22T02:06:04.312Z,2.47
2023-02-22T02:08:51.853Z,2.57
2023-02-22T02:11:22.362Z,2.63
2023-02-22T02:13:56.888Z,2.20
2023-02-22T02:16:39.363Z,2.20
2023-02-22T02:19:28.078Z,2.50
2023-02-22T02:22:34.456Z,2.00
2023-02-22T02:25:43.323Z,1.97
2023-02-22T02:28:42.535Z,2.03
2023-02-22T02:31:27.699Z,2.17
2023-02-22T02:34:15.561Z,2.77
2023-02-22T02:37:00.252Z,2.20
2023-02-22T02:39:44.392Z,1.87
2023-02-22T02:42:15.554Z,1.70
2023-02-22T02:45:04.211Z,1.60
2023-02-22T02:47:37.067Z,1.67
2023-02-22T02:50:10.304Z,2.00
2023-02-22T02:52:38.456Z,1.80
2023-02-22T02:55:10.620Z,1.90
2023-02-22T02:57:38.922Z,2.03
2023-02-22T03:00:22.386Z,2.00
2023-02-22T03:03:00.464Z,1.70
2023-02-22T03:05:37.286Z,1.87
2023-02-22T03:08:30.236Z,1.90
2023-02-22T03:11:17.240Z,2.00
2023-02-22T03:14:16.685Z,2.90
2023-02-22T03:16:57.666Z,2.03
2023-02-22T03:19:45.892Z,1.70
2023-02-22T03:22:26.488Z,2.00
2023-02-22T03:25:07.176Z,2.80
2023-02-22T03:27:48.435Z,2.50
2023-02-22T03:30:31.553Z,2.97
2023-02-22T03:33:09.345Z,2.47
2023-02-22T03:35:42.134Z,2.63
2023-02-22T03:38:12.325Z,2.00
2023-02-22T03:40:45.095Z,2.27
2023-02-22T03:43:21.919Z,2.43
2023-02-22T03:45:50.995Z,2.43
2023-02-22T03:48:54.515Z,2.80
2023-02-22T03:51:22.347Z,2.90
2023-02-22T03:53:49.242Z,2.80
2023-02-22T03:56:25.740Z,2.73
2023-02-22T03:58:53.164Z,2.70
2023-02-22T04:01:20.022Z,2.70
2023-02-22T04:03:47.257Z,3.43
2023-02-22T04:06:13.924Z,3.33
2023-02-22T04:08:41.084Z,3.20
2023-02-22T04:11:08.254Z,2.50
2023-02-22T04:13:34.916Z,2.80
2023-02-22T04:16:02.054Z,2.63
2023-02-22T04:18:29.680Z,2.70
2023-02-22T04:20:56.761Z,2.77
2023-02-22T04:23:23.408Z,2.83
2023-02-22T04:25:50.510Z,3.30
2023-02-22T04:28:17.718Z,3.27
2023-02-22T04:30:45.727Z,3.63
2023-02-22T04:33:13.435Z,4.60
2023-02-22T04:35:40.496Z,3.80
2023-02-22T04:38:09.166Z,3.53
2023-02-22T04:40:36.551Z,3.27
2023-02-22T04:43:03.201Z,3.70
2023-02-22T04:45:29.829Z,4.47
2023-02-22T04:47:56.963Z,4.17
2023-02-22T04:50:23.692Z,4.80
2023-02-22T04:52:50.770Z,4.83
2023-02-22T04:55:17.776Z,4.60
2023-02-22T04:57:44.910Z,5.57
2023-02-22T05:00:16.041Z,4.70
2023-02-22T05:02:43.164Z,4.50
2023-02-22T05:05:09.840Z,5.03
2023-02-22T05:07:36.472Z,4.67
2023-02-22T05:10:04.544Z,4.70
2023-02-22T05:12:31.161Z,4.87
2023-02-22T05:14:57.815Z,5.00
2023-02-22T05:17:24.977Z,5.13
2023-02-22T05:19:54.797Z,5.17
2023-02-22T05:22:21.428Z,5.30
2023-02-22T05:24:50.020Z,4.00
2023-02-22T05:27:16.709Z,4.73
2023-02-22T05:29:43.743Z,4.37
2023-02-22T05:32:12.593Z,5.20
2023-02-22T05:34:39.740Z,6.40
2023-02-22T05:37:07.247Z,7.27
2023-02-22T05:39:33.940Z,8.10
2023-02-22T05:42:00.573Z,8.73
2023-02-22T05:44:28.351Z,7.53
2023-02-22T05:46:55.417Z,8.30
2023-02-22T05:49:22.064Z,6.50
2023-02-22T05:51:48.705Z,6.10
2023-02-22T05:54:15.736Z,5.10
2023-02-22T05:56:42.386Z,5.23
2023-02-22T05:59:09.476Z,6.30
2023-02-22T06:01:36.528Z,7.17
2023-02-22T06:04:03.189Z,5.53
2023-02-22T06:06:30.335Z,5.90
2023-02-22T06:08:58.040Z,5.90
2023-02-22T06:11:24.704Z,6.20
2023-02-22T06:13:54.515Z,5.17
2023-02-22T06:16:23.020Z,5.87
2023-02-22T06:18:50.197Z,6.30
2023-02-22T06:21:17.565Z,6.10
2023-02-22T06:23:44.973Z,5.90
2023-02-22T06:26:12.061Z,6.70
2023-02-22T06:28:38.687Z,5.67
2023-02-22T06:31:05.984Z,6.30
2023-02-22T06:33:32.630Z,5.67
2023-02-22T06:35:59.709Z,6.63
2023-02-22T06:38:27.722Z,6.30
2023-02-22T06:40:57.814Z,6.43
2023-02-22T06:43:24.975Z,7.10
2023-02-22T06:45:52.321Z,6.27
2023-02-22T06:48:20.197Z,6.73
2023-02-22T06:50:46.982Z,6.80
2023-02-22T06:53:32.682Z,6.37
2023-02-22T06:55:59.430Z,6.80
2023-02-22T06:58:27.088Z,5.63
2023-02-22T07:00:55.044Z,5.30
2023-02-22T07:03:22.156Z,5.20
2023-02-22T07:05:48.952Z,6.50
2023-02-22T07:08:15.626Z,7.53
2023-02-22T07:10:42.283Z,6.87
2023-02-22T07:13:09.982Z,7.37
2023-02-22T07:15:36.692Z,7.17
2023-02-22T07:18:04.091Z,6.40
2023-02-22T07:20:31.578Z,9.47
2023-02-22T07:22:58.878Z,9.47
2023-02-22T07:25:25.824Z,10.63
2023-02-22T07:27:52.943Z,12.57
2023-02-22T07:30:26.869Z,11.80
2023-02-22T07:32:55.356Z,11.60
2023-02-22T07:35:34.353Z,10.07
2023-02-22T07:38:01.009Z,9.67
2023-02-22T07:40:28.657Z,8.90
2023-02-22T07:43:26.306Z,8.53
2023-02-22T07:45:59.923Z,7.63
2023-02-22T07:48:28.401Z,6.80
2023-02-22T07:50:57.214Z,7.00
2023-02-22T07:53:28.930Z,7.57
2023-02-22T07:55:57.697Z,6.00
2023-02-22T07:58:26.688Z,5.53
2023-02-22T08:00:54.698Z,6.40
2023-02-22T08:03:25.322Z,6.27
2023-02-22T08:05:57.645Z,6.20
2023-02-22T08:08:25.097Z,6.80
2023-02-22T08:10:52.436Z,6.97
2023-02-22T08:13:20.762Z,7.00
2023-02-22T08:15:47.988Z,7.53
2023-02-22T08:18:17.636Z,7.68
2023-02-22T08:20:47.222Z,9.68
2023-02-22T08:23:15.968Z,7.60
2023-02-22T08:25:43.325Z,7.35
2023-02-22T08:28:13.146Z,6.40
2023-02-22T08:30:42.729Z,5.68
2023-02-22T08:33:10.846Z,5.53
2023-02-22T08:35:38.172Z,5.90
2023-02-22T08:38:07.599Z,4.68
2023-02-22T08:40:36.477Z,5.15
2023-02-22T08:43:04.954Z,4.60
2023-02-22T08:45:32.650Z,4.70
2023-02-22T08:47:59.661Z,3.97
2023-02-22T08:50:29.201Z,3.30
2023-02-22T08:52:59.341Z,3.30
2023-02-22T08:55:34.259Z,3.58
2023-02-22T08:58:03.071Z,3.30
2023-02-22T09:00:35.171Z,3.20
2023-02-22T09:03:07.848Z,3.20
2023-02-22T09:05:35.351Z,3.10
2023-02-22T09:08:04.441Z,2.80
2023-02-22T09:10:33.482Z,2.33
2023-02-22T09:13:06.082Z,3.30
2023-02-22T09:15:35.879Z,2.47
2023-02-22T09:18:03.756Z,3.15
2023-02-22T09:20:32.398Z,2.80
2023-02-22T09:23:00.922Z,2.55
2023-02-22T09:26:25.490Z,2.88
2023-02-22T09:28:53.764Z,3.13
2023-02-22T09:31:21.553Z,3.20
2023-02-22T09:33:49.068Z,2.53
2023-02-22T09:36:16.025Z,2.00
2023-02-22T09:38:42.843Z,1.98
2023-02-22T09:41:20.847Z,2.10
2023-02-22T09:44:07.919Z,2.33
2023-02-22T09:46:40.719Z,2.20
2023-02-22T09:49:13.877Z,2.03
2023-02-22T09:51:56.063Z,2.10
2023-02-22T09:54:24.991Z,2.42
2023-02-22T09:56:57.762Z,2.20
2023-02-22T09:59:31.357Z,2.40
2023-02-22T10:02:08.236Z,2.30
2023-02-22T10:04:42.700Z,2.50
2023-02-22T10:07:34.792Z,3.00
2023-02-22T10:10:09.433Z,2.78
2023-02-22T10:12:44.955Z,3.10
2023-02-22T10:18:17.191Z,3.10
2023-02-22T10:21:08.403Z,3.15
2023-02-22T10:23:59.395Z,3.07
2023-02-22T10:26:34.884Z,2.70
2023-02-22T10:29:15.348Z,2.93
2023-02-22T10:34:46.604Z,3.63
2023-02-22T10:37:28.952Z,3.10
2023-02-22T10:40:12.797Z,2.87
2023-02-22T10:42:39.494Z,2.80
2023-02-22T10:45:19.188Z,2.77
2023-02-22T10:47:46.716Z,2.60
2023-02-22T10:50:15.623Z,2.60
2023-02-22T10:52:43.064Z,2.63
2023-02-22T10:55:16.043Z,3.37
2023-02-22T10:57:46.752Z,3.20
2023-02-22T11:00:28.110Z,2.70
2023-02-22T11:02:58.132Z,2.77
2023-02-22T11:05:40.569Z,2.70
2023-02-22T11:08:24.418Z,2.43
2023-02-22T11:11:18.494Z,2.60
2023-02-22T11:13:55.494Z,3.13
2023-02-22T11:16:31.929Z,2.63
2023-02-22T11:19:20.432Z,2.57
2023-02-22T11:21:54.365Z,5.50
2023-02-22T11:24:24.816Z,3.08
2023-02-22T11:26:56.717Z,2.93
2023-02-22T11:32:22.422Z,3.17
2023-02-22T11:35:00.292Z,2.67
2023-02-22T11:37:36.950Z,2.70
2023-02-22T11:40:20.115Z,2.43
2023-02-22T11:42:47.616Z,2.50
2023-02-22T11:45:22.571Z,2.40
2023-02-22T11:48:07.124Z,2.60
2023-02-22T11:50:57.665Z,2.65
2023-02-22T11:53:37.007Z,2.42
2023-02-22T11:56:38.200Z,2.67
2023-02-22T11:59:25.144Z,2.20
2023-02-22T12:02:18.702Z,2.53
2023-02-22T12:08:23.692Z,2.50
2023-02-22T12:11:22.183Z,2.20
2023-02-22T12:14:24.436Z,2.43
2023-02-22T12:17:32.314Z,2.50
2023-02-22T12:20:14.244Z,2.90
2023-02-22T12:22:54.176Z,2.43
2023-02-22T12:25:26.342Z,2.40
2023-02-22T12:28:23.654Z,2.40
2023-02-22T12:31:04.926Z,2.57
2023-02-22T12:34:01.429Z,2.40
2023-02-22T12:36:50.133Z,2.43
2023-02-22T12:39:50.757Z,2.40
2023-02-22T12:42:33.374Z,2.43
2023-02-22T12:45:17.700Z,2.20
2023-02-22T12:47:54.898Z,2.43
2023-02-22T12:50:25.036Z,2.10
2023-02-22T12:53:21.787Z,2.17
2023-02-22T12:56:15.934Z,2.07
2023-02-22T12:58:54.875Z,2.87
2023-02-22T13:01:26.438Z,2.00
2023-02-22T13:03:55.764Z,1.70
2023-02-22T13:06:36.521Z,2.10
2023-02-22T13:09:16.719Z,1.80
2023-02-22T13:15:14.590Z,2.00
2023-02-22T13:17:47.390Z,2.33
2023-02-22T13:20:22.867Z,2.15
2023-02-22T13:23:08.152Z,2.33
2023-02-22T13:26:08.490Z,1.80
2023-02-22T13:29:21.053Z,2.10
2023-02-22T13:31:59.258Z,1.90
2023-02-22T13:34:51.682Z,2.30
2023-02-22T13:37:54.274Z,2.28
2023-02-22T13:40:47.515Z,2.10
2023-02-22T13:43:33.256Z,2.20
2023-02-22T13:46:19.429Z,2.30
2023-02-22T13:49:20.381Z,2.20
2023-02-22T13:51:56.551Z,1.70
2023-02-22T13:54:38.120Z,1.97
2023-02-22T13:57:19.639Z,1.90
2023-02-22T13:59:47.288Z,2.07
2023-02-22T14:02:52.871Z,1.70
2023-02-22T14:05:36.484Z,2.13
2023-02-22T14:08:03.654Z,1.73
2023-02-22T14:11:20.077Z,1.80
2023-02-22T14:13:56.964Z,1.83
2023-02-22T14:16:28.182Z,2.07
2023-02-22T14:19:13.316Z,1.80
2023-02-22T14:22:07.630Z,2.07
2023-02-22T14:24:44.641Z,1.77
2023-02-22T14:27:14.503Z,2.10
2023-02-22T14:29:57.209Z,2.20
2023-02-22T14:32:32.994Z,1.80
2023-02-22T14:35:25.473Z,2.03
2023-02-22T14:37:57.805Z,2.23
2023-02-22T14:40:30.367Z,1.93
2023-02-22T14:43:09.872Z,2.17
2023-02-22T14:45:56.030Z,2.10
2023-02-22T14:48:39.711Z,2.30
2023-02-22T14:51:21.846Z,2.30
2023-02-22T14:54:02.481Z,2.30
2023-02-22T14:56:41.102Z,2.20
2023-02-22T14:59:22.012Z,2.20
2023-02-22T15:02:02.178Z,2.20
2023-02-22T15:04:32.684Z,1.93
2023-02-22T15:07:01.215Z,1.90
2023-02-22T15:09:32.480Z,2.20
2023-02-22T15:12:04.058Z,2.20
2023-02-22T15:14:37.972Z,2.00
2023-02-22T15:17:13.670Z,2.10
2023-02-22T15:19:42.377Z,1.87
2023-02-22T15:22:25.226Z,1.90
2023-02-22T15:25:25.215Z,3.67
2023-02-22T15:27:52.262Z,4.80
2023-02-22T15:30:24.092Z,3.10
2023-02-22T15:33:03.804Z,2.40
2023-02-22T15:35:33.511Z,1.80
2023-02-22T15:38:10.919Z,1.50
2023-02-22T15:40:42.853Z,2.90
2023-02-22T15:43:19.499Z,3.57
2023-02-22T15:45:46.568Z,4.20
2023-02-22T15:49:03.072Z,3.10
2023-02-22T15:51:29.854Z,2.40
2023-02-22T15:54:01.847Z,8.63
2023-02-22T15:56:31.365Z,3.70
2023-02-22T15:59:11.460Z,3.83
2023-02-22T16:01:42.474Z,5.50
2023-02-22T16:04:21.911Z,3.80
2023-02-22T16:06:49.886Z,3.00
2023-02-22T16:09:30.283Z,2.30
2023-02-22T16:12:21.865Z,3.00
2023-02-22T16:14:49.981Z,2.57
2023-02-22T16:17:49.512Z,5.03
2023-02-22T16:20:24.776Z,5.10
2023-02-22T16:22:51.457Z,3.23
2023-02-22T16:25:18.312Z,6.73
2023-02-22T16:27:52.669Z,7.77
2023-02-22T16:30:39.805Z,6.47
2023-02-22T16:33:13.463Z,3.50
2023-02-22T16:35:40.903Z,6.40
2023-02-22T16:38:16.665Z,3.93
2023-02-22T16:41:01.665Z,6.90
2023-02-22T16:43:31.505Z,4.83
2023-02-22T16:45:58.497Z,3.20
2023-02-22T16:48:27.452Z,3.33
2023-02-22T16:50:58.312Z,7.50
2023-02-22T16:53:27.542Z,7.27
2023-02-22T16:56:00.437Z,5.00
2023-02-22T16:58:27.921Z,4.37
2023-02-22T17:00:57.226Z,4.87
2023-02-22T17:03:24.887Z,3.93
2023-02-22T17:05:51.709Z,3.33
2023-02-22T17:08:18.547Z,4.07
2023-02-22T17:10:51.725Z,15.83
2023-02-22T17:13:26.955Z,8.37
2023-02-22T17:15:57.417Z,8.10
2023-02-22T17:18:29.108Z,7.03
2023-02-22T17:20:56.423Z,7.00
2023-02-22T17:23:24.507Z,11.17
2023-02-22T17:25:53.777Z,13.40
2023-02-22T17:28:24.427Z,12.70
2023-02-22T17:30:52.586Z,8.00
2023-02-22T17:33:21.890Z,7.43
2023-02-22T17:35:48.637Z,5.57
2023-02-22T17:38:18.627Z,11.03
2023-02-22T17:40:48.357Z,12.17
2023-02-22T17:43:15.671Z,9.40
2023-02-22T17:45:42.909Z,13.73
2023-02-22T17:48:09.897Z,15.53
2023-02-22T17:50:38.451Z,11.63
2023-02-22T17:53:05.571Z,8.30
2023-02-22T17:55:34.194Z,7.67
2023-02-22T17:58:01.226Z,8.77
2023-02-22T18:00:33.294Z,11.17
2023-02-22T18:03:02.499Z,10.23
2023-02-22T18:05:29.766Z,14.67
2023-02-22T18:07:58.653Z,9.80
2023-02-22T18:10:39.171Z,9.87
2023-02-22T18:13:17.896Z,10.37
2023-02-22T18:15:46.530Z,9.07
2023-02-22T18:18:13.558Z,7.37
2023-02-22T18:20:51.564Z,12.80
2023-02-22T18:23:20.775Z,43.10
2023-02-22T18:26:09.000Z,12.57
2023-02-22T18:28:36.611Z,12.40
2023-02-22T18:31:14.491Z,10.20
2023-02-22T18:33:45.840Z,11.10
2023-02-22T18:36:14.369Z,14.27
2023-02-22T18:38:43.094Z,26.20
2023-02-22T18:41:12.831Z,16.27
2023-02-22T18:43:40.459Z,10.30
2023-02-22T18:46:13.683Z,13.87
2023-02-22T18:48:40.582Z,10.37
2023-02-22T18:51:10.480Z,8.97
2023-02-22T18:53:38.609Z,11.37
2023-02-22T18:56:10.966Z,11.97
2023-02-22T18:58:38.895Z,15.33
2023-02-22T19:01:06.846Z,14.83
2023-02-22T19:03:38.072Z,10.17
2023-02-22T19:06:08.675Z,9.40
2023-02-22T19:08:39.966Z,8.07
2023-02-22T19:11:19.487Z,7.47
2023-02-22T19:13:56.296Z,9.07
2023-02-22T19:16:24.686Z,10.07
2023-02-22T19:18:56.842Z,8.90
2023-02-22T19:21:25.288Z,9.47
2023-02-22T19:23:52.066Z,8.77
2023-02-22T19:26:28.747Z,9.57
2023-02-22T19:28:57.580Z,9.13
2023-02-22T19:31:31.607Z,10.03
2023-02-22T19:34:11.002Z,9.33
2023-02-22T19:36:46.314Z,10.00
2023-02-22T19:39:14.657Z,9.80
2023-02-22T19:41:41.874Z,7.77
2023-02-22T19:44:08.782Z,7.00
2023-02-22T19:46:36.410Z,8.10
2023-02-22T19:49:03.750Z,6.80
2023-02-22T19:51:32.035Z,6.33
2023-02-22T19:54:11.259Z,4.93
2023-02-22T19:56:38.162Z,5.70
2023-02-22T19:59:13.645Z,6.00
2023-02-22T20:01:44.514Z,6.20
2023-02-22T20:04:17.982Z,6.60
2023-02-22T20:06:46.043Z,7.10
2023-02-22T20:09:15.876Z,6.73
2023-02-22T20:11:42.644Z,7.00
2023-02-22T20:14:20.479Z,6.37
2023-02-22T20:16:47.441Z,6.57
2023-02-22T20:19:14.065Z,6.10
2023-02-22T20:21:40.718Z,6.57
2023-02-22T20:24:11.929Z,5.33
2023-02-22T20:26:39.687Z,5.77
2023-02-22T20:29:07.932Z,5.60
2023-02-22T20:31:34.935Z,7.90
2023-02-22T20:34:02.265Z,9.90
2023-02-22T20:36:30.105Z,9.27
2023-02-22T20:38:59.547Z,10.10
2023-02-22T20:41:29.083Z,9.97
2023-02-22T20:43:56.482Z,10.30
2023-02-22T20:46:25.009Z,9.70
2023-02-22T20:49:00.376Z,9.73
2023-02-22T20:51:28.028Z,9.37
2023-02-22T20:53:56.841Z,12.80
2023-02-22T20:56:24.670Z,12.70
2023-02-22T20:58:51.666Z,14.43
2023-02-22T21:01:21.001Z,12.63
2023-02-22T21:03:48.496Z,11.93
2023-02-22T21:06:16.935Z,13.13
2023-02-22T21:08:45.829Z,12.30
2023-02-22T21:11:15.372Z,12.93
2023-02-22T21:13:42.387Z,12.37
2023-02-22T21:16:15.355Z,11.03
2023-02-22T21:18:42.008Z,9.37
2023-02-22T21:21:12.673Z,7.80
2023-02-22T21:23:40.936Z,6.90
2023-02-22T21:26:16.812Z,11.43
2023-02-22T21:28:51.957Z,11.00
2023-02-22T21:31:21.747Z,9.10
2023-02-22T21:33:50.697Z,13.20
2023-02-22T21:36:18.090Z,13.30
2023-02-22T21:38:53.434Z,11.17
2023-02-22T21:41:21.751Z,6.70
2023-02-22T21:43:52.069Z,7.83
2023-02-22T21:46:19.810Z,8.93
2023-02-22T21:48:48.887Z,9.07
2023-02-22T21:51:31.733Z,8.23
2023-02-22T21:54:01.037Z,7.87
2023-02-22T21:56:29.024Z,5.60
2023-02-22T21:59:04.949Z,5.07
2023-02-22T22:01:38.846Z,3.80
2023-02-22T22:04:05.533Z,5.13
2023-02-22T22:06:34.606Z,5.83
2023-02-22T22:09:20.603Z,7.13
2023-02-22T22:11:54.471Z,5.90
2023-02-22T22:14:23.450Z,6.20
2023-02-22T22:16:54.101Z,6.97
2023-02-22T22:19:20.887Z,8.50
2023-02-22T22:21:49.081Z,8.93
2023-02-22T22:24:16.132Z,8.87
2023-02-22T22:26:43.997Z,8.27
2023-02-22T22:29:11.673Z,6.93
2023-02-22T22:31:38.621Z,6.43
2023-02-22T22:34:05.673Z,8.27
2023-02-22T22:36:34.439Z,7.70
2023-02-22T22:39:01.508Z,7.90
2023-02-22T22:41:28.341Z,7.90
2023-02-22T22:43:55.936Z,7.70
2023-02-22T22:46:23.082Z,6.73
2023-02-22T22:48:50.069Z,7.20
2023-02-22T22:51:21.813Z,7.73
2023-02-22T22:53:50.392Z,9.00
2023-02-22T22:56:20.349Z,9.37
2023-02-22T22:58:53.177Z,10.03
2023-02-22T23:01:27.217Z,10.70
2023-02-22T23:04:02.253Z,8.70
2023-02-22T23:06:32.694Z,8.80
2023-02-22T23:09:11.664Z,8.50
2023-02-22T23:11:44.393Z,8.03
2023-02-22T23:14:19.701Z,7.47
2023-02-22T23:16:51.546Z,7.63
2023-02-22T23:19:19.478Z,7.40
2023-02-22T23:21:48.014Z,7.13
2023-02-22T23:24:16.334Z,6.60
2023-02-22T23:26:50.388Z,6.53
2023-02-22T23:29:19.002Z,6.17
2023-02-22T23:31:48.336Z,7.03
2023-02-22T23:34:18.610Z,6.20
2023-02-22T23:36:45.318Z,6.30
2023-02-22T23:39:17.397Z,5.87
2023-02-22T23:41:44.081Z,5.77
2023-02-22T23:44:14.198Z,5.97
2023-02-22T23:46:41.651Z,7.07
2023-02-22T23:49:10.087Z,6.43
2023-02-22T23:51:44.735Z,6.70
2023-02-22T23:54:14.747Z,6.03
2023-02-22T23:56:53.828Z,5.23
2023-02-22T23:59:20.713Z,5.57
